Fifty Lakes, Minnesota
Current Conditions -  °F | °C
As of 3:34 PM on Thursday 23 Oct 2014 (Local Time) from KPWC Reporting Station
Clear Clear  
Wind Chill: 66°   Ceiling: Unl
Heat Index: 66°   Visibility: 10mi
Dew Point: 45°   Wind: 8mph
Humidity: 46%   Direction: 230°SW
Pressure: 29.93"   Gusts: NA
Location:  46.74°N, 94.09°W
Report Text: KPWC 232034Z AUTO 23007KT 10SM CLR 19/07 A2993 RMK AO2
Loading
Personal Weather Stations






























Interactive Weather Map
Tropical Storm Tracking
New forecast layout! Learn more

10-Day Weather Forecast

Advertisements
Track Severe Weather on mobile